createdAt,value
2022-08-04T00:01:03.982Z,98190.47
2022-08-04T00:03:45.180Z,98189.34
2022-08-04T00:06:38.486Z,98194.37
2022-08-04T00:09:12.457Z,98190.09
2022-08-04T00:11:45.540Z,98186.87
2022-08-04T00:14:15.548Z,98200.25
2022-08-04T00:16:43.767Z,98194.28
2022-08-04T00:19:13.532Z,98187.50
2022-08-04T00:21:43.683Z,98193.31
2022-08-04T00:24:12.993Z,98190.44
2022-08-04T00:26:40.655Z,98186.84
2022-08-04T00:29:07.714Z,98180.06
2022-08-04T00:31:54.272Z,98177.44
2022-08-04T00:34:27.597Z,98182.84
2022-08-04T00:36:55.998Z,98187.28
2022-08-04T00:39:23.304Z,98185.16
2022-08-04T00:42:06.250Z,98181.03
2022-08-04T00:44:43.359Z,98184.00
2022-08-04T00:47:45.466Z,98189.31
2022-08-04T00:50:27.844Z,98184.31
2022-08-04T00:53:22.694Z,98185.63
2022-08-04T00:56:17.372Z,98188.19
2022-08-04T00:59:09.140Z,98192.47
2022-08-04T01:01:41.944Z,98192.44
2022-08-04T01:04:15.498Z,98191.22
2022-08-04T01:07:23.168Z,98184.78
2022-08-04T01:10:17.704Z,98193.06
2022-08-04T01:13:18.741Z,98196.09
2022-08-04T01:15:59.547Z,98197.28
2022-08-04T01:18:51.991Z,98188.28
2022-08-04T01:21:31.103Z,98189.34
2022-08-04T01:24:09.911Z,98190.25
2022-08-04T01:26:57.844Z,98177.44
2022-08-04T01:29:29.355Z,98188.00
2022-08-04T01:32:18.365Z,98190.75
2022-08-04T01:35:03.333Z,98189.31
2022-08-04T01:37:42.627Z,98183.31
2022-08-04T01:40:09.742Z,98186.13
2022-08-04T01:42:37.543Z,98177.69
2022-08-04T01:45:07.018Z,98172.41
2022-08-04T01:47:36.605Z,98170.00
2022-08-04T01:50:14.099Z,98181.03
2022-08-04T01:52:44.664Z,98169.50
2022-08-04T01:55:15.822Z,98168.50
2022-08-04T01:57:45.475Z,98170.34
2022-08-04T02:00:14.676Z,98162.00
2022-08-04T02:02:41.948Z,98167.53
2022-08-04T02:05:13.008Z,98163.56
2022-08-04T02:08:01.607Z,98167.16
2022-08-04T02:10:31.463Z,98162.16
2022-08-04T02:13:35.162Z,98167.56
2022-08-04T02:16:09.455Z,98169.22
2022-08-04T02:18:52.589Z,98156.44
2022-08-04T02:21:20.707Z,98170.81
2022-08-04T02:23:52.428Z,98167.94
2022-08-04T02:26:22.584Z,98159.66
2022-08-04T02:29:04.244Z,98160.62
2022-08-04T02:31:40.068Z,98155.75
2022-08-04T02:34:09.700Z,98155.50
2022-08-04T02:36:39.773Z,98158.94
2022-08-04T02:39:09.228Z,98149.47
2022-08-04T02:41:37.585Z,98159.00
2022-08-04T02:44:10.271Z,98158.69
2022-08-04T02:46:38.460Z,98155.38
2022-08-04T02:49:08.199Z,98162.31
2022-08-04T02:51:44.234Z,98160.50
2022-08-04T02:54:11.875Z,98164.75
2022-08-04T02:56:40.539Z,98158.50
2022-08-04T02:59:10.040Z,98157.13
2022-08-04T03:01:37.495Z,98155.41
2022-08-04T03:04:25.744Z,98146.97
2022-08-04T03:07:25.693Z,98160.56
2022-08-04T03:10:04.618Z,98158.94
2022-08-04T03:12:46.638Z,98156.53
2022-08-04T03:15:36.281Z,98165.16
2022-08-04T03:18:18.288Z,98162.66
2022-08-04T03:21:05.092Z,98156.41
2022-08-04T03:24:02.526Z,98165.22
2022-08-04T03:26:39.993Z,98156.22
2022-08-04T03:29:36.608Z,98159.69
2022-08-04T03:32:35.139Z,98159.75
2022-08-04T03:35:23.051Z,98154.66
2022-08-04T03:38:12.352Z,98166.72
2022-08-04T03:41:04.579Z,98163.56
2022-08-04T03:43:58.775Z,98163.09
2022-08-04T03:46:43.088Z,98158.88
2022-08-04T03:49:28.842Z,98160.16
2022-08-04T03:52:49.731Z,98167.62
2022-08-04T03:55:36.293Z,98164.28
2022-08-04T03:58:40.856Z,98163.66
2022-08-04T04:02:01.269Z,98162.88
2022-08-04T04:04:43.362Z,98164.34
2022-08-04T04:07:22.535Z,98167.81
2022-08-04T04:10:38.438Z,98166.50
2022-08-04T04:13:11.618Z,98175.88
2022-08-04T04:16:15.903Z,98180.31
2022-08-04T04:18:55.840Z,98174.19
2022-08-04T04:21:41.404Z,98176.38
2022-08-04T04:24:33.760Z,98174.75
2022-08-04T04:27:27.164Z,98179.00
2022-08-04T04:30:04.130Z,98178.44
2022-08-04T04:32:46.214Z,98181.56
2022-08-04T04:35:41.192Z,98194.22
2022-08-04T04:38:29.872Z,98193.78
2022-08-04T04:41:11.735Z,98187.13
2022-08-04T04:43:59.722Z,98190.06
2022-08-04T04:46:53.319Z,98189.47
2022-08-04T04:49:32.137Z,98199.16
2022-08-04T04:52:22.014Z,98205.13
2022-08-04T04:55:00.880Z,98200.88
2022-08-04T04:57:53.870Z,98201.31
2022-08-04T05:00:18.071Z,98204.38
2022-08-04T05:02:51.097Z,98202.97
2022-08-04T05:05:42.920Z,98212.34
2022-08-04T05:08:44.642Z,98207.78
2022-08-04T05:11:26.020Z,98210.44
2022-08-04T05:14:35.503Z,98207.25
2022-08-04T05:16:45.353Z,98212.06
2022-08-04T05:19:29.121Z,98211.75
2022-08-04T05:22:09.233Z,98218.47
2022-08-04T05:24:42.553Z,98218.44
2022-08-04T05:27:14.949Z,98218.28
2022-08-04T05:29:48.924Z,98217.22
2022-08-04T05:32:16.605Z,98213.19
2022-08-04T05:34:48.451Z,98216.63
2022-08-04T05:37:21.057Z,98215.03
2022-08-04T05:39:58.166Z,98219.59
2022-08-04T05:42:26.191Z,98222.75
2022-08-04T05:44:53.824Z,98220.97
2022-08-04T05:47:24.013Z,98212.94
2022-08-04T05:50:01.483Z,98217.03
2022-08-04T05:52:30.994Z,98219.34
2022-08-04T05:54:59.541Z,98223.97
2022-08-04T05:57:26.540Z,98226.31
2022-08-04T05:59:54.177Z,98219.72
2022-08-04T06:02:22.085Z,98228.47
2022-08-04T06:04:50.726Z,98231.59
2022-08-04T06:07:18.300Z,98228.66
2022-08-04T06:09:45.482Z,98234.97
2022-08-04T06:12:16.876Z,98231.81
2022-08-04T06:14:46.117Z,98235.16
2022-08-04T06:18:33.978Z,98230.44
2022-08-04T06:20:20.275Z,98232.25
2022-08-04T06:23:06.721Z,98231.28
2022-08-04T06:25:37.352Z,98241.81
2022-08-04T06:28:06.157Z,98236.84
2022-08-04T06:30:33.549Z,98241.41
2022-08-04T06:33:05.190Z,98244.03
2022-08-04T06:35:34.388Z,98237.78
2022-08-04T06:38:03.142Z,98235.00
2022-08-04T06:40:34.989Z,98229.00
2022-08-04T06:43:04.313Z,98243.41
2022-08-04T06:45:35.060Z,98241.41
2022-08-04T06:48:03.858Z,98235.91
2022-08-04T06:51:30.201Z,98238.63
2022-08-04T06:53:19.354Z,98240.28
2022-08-04T06:55:47.706Z,98237.28
2022-08-04T06:58:15.880Z,98229.97
2022-08-04T07:00:44.522Z,98234.66
2022-08-04T07:03:14.860Z,98239.56
2022-08-04T07:05:42.409Z,98226.81
2022-08-04T07:08:12.370Z,98235.25
2022-08-04T07:10:39.758Z,98234.59
2022-08-04T07:13:07.900Z,98238.53
2022-08-04T07:15:36.507Z,98236.25
2022-08-04T07:18:05.310Z,98233.66
2022-08-04T07:20:35.557Z,98239.06
2022-08-04T07:23:04.922Z,98230.66
2022-08-04T07:26:00.352Z,98236.28
2022-08-04T07:28:20.208Z,98233.50
2022-08-04T07:30:48.801Z,98242.34
2022-08-04T07:33:19.772Z,98236.47
2022-08-04T07:36:05.579Z,98232.25
2022-08-04T07:38:37.467Z,98239.13
2022-08-04T07:44:00.733Z,98233.97
2022-08-04T07:46:27.764Z,98236.88
2022-08-04T07:48:59.780Z,98229.44
2022-08-04T07:51:27.266Z,98230.47
2022-08-04T07:53:56.437Z,98228.91
2022-08-04T07:56:23.714Z,98225.78
2022-08-04T07:58:50.736Z,98240.69
2022-08-04T08:01:19.243Z,98229.62
2022-08-04T08:03:46.953Z,98233.34
2022-08-04T08:06:31.281Z,98234.75
2022-08-04T08:09:12.391Z,98232.09
2022-08-04T08:12:37.592Z,98234.22
2022-08-04T08:14:36.933Z,98233.59
2022-08-04T08:17:04.863Z,98236.38
2022-08-04T08:19:32.425Z,98233.28
2022-08-04T08:22:01.175Z,98233.09
2022-08-04T08:24:35.581Z,98232.37
2022-08-04T08:27:07.073Z,98230.63
2022-08-04T08:29:35.556Z,98232.28
2022-08-04T08:32:08.059Z,98234.94
2022-08-04T08:34:35.877Z,98230.31
2022-08-04T08:37:21.859Z,98230.66
2022-08-04T08:40:00.202Z,98230.22
2022-08-04T08:42:51.853Z,98231.34
2022-08-04T08:45:44.333Z,98225.81
2022-08-04T08:48:40.749Z,98231.94
2022-08-04T08:51:19.372Z,98233.81
2022-08-04T08:54:28.956Z,98233.44
2022-08-04T08:57:33.118Z,98233.16
2022-08-04T09:00:21.959Z,98239.66
2022-08-04T09:03:05.287Z,98239.66
2022-08-04T09:05:50.388Z,98232.63
2022-08-04T09:08:38.998Z,98234.91
2022-08-04T09:11:13.789Z,98237.03
2022-08-04T09:13:46.460Z,98241.94
2022-08-04T09:16:24.678Z,98237.94
2022-08-04T09:19:00.340Z,98231.13
2022-08-04T09:21:45.445Z,98228.59
2022-08-04T09:24:36.836Z,98235.72
2022-08-04T09:27:10.656Z,98224.50
2022-08-04T09:29:41.703Z,98228.06
2022-08-04T09:32:31.473Z,98231.38
2022-08-04T09:35:19.277Z,98230.97
2022-08-04T09:38:07.622Z,98236.06
2022-08-04T09:40:56.884Z,98217.84
2022-08-04T09:43:59.173Z,98222.81
2022-08-04T09:46:53.666Z,98221.03
2022-08-04T09:49:28.639Z,98210.22
2022-08-04T09:52:31.134Z,98219.78
2022-08-04T09:55:17.642Z,98207.47
2022-08-04T09:58:22.956Z,98203.16
2022-08-04T10:01:23.975Z,98200.22
2022-08-04T10:04:01.336Z,98196.69
2022-08-04T10:06:40.390Z,98199.12
2022-08-04T10:09:16.192Z,98201.81
2022-08-04T10:11:58.474Z,98202.47
2022-08-04T10:14:36.585Z,98198.22
2022-08-04T10:17:16.673Z,98202.37
2022-08-04T10:19:43.716Z,98205.94
2022-08-04T10:23:10.698Z,98192.91
2022-08-04T10:26:07.242Z,98194.03
2022-08-04T10:28:45.619Z,98183.25
2022-08-04T10:31:18.739Z,98187.53
2022-08-04T10:33:50.881Z,98176.59
2022-08-04T10:36:19.754Z,98184.97
2022-08-04T10:38:51.575Z,98194.78
2022-08-04T10:41:34.299Z,98187.28
2022-08-04T10:44:01.164Z,98189.25
2022-08-04T10:46:58.748Z,98185.19
2022-08-04T10:49:35.391Z,98188.63
2022-08-04T10:52:11.457Z,98185.59
2022-08-04T10:54:39.188Z,98183.00
2022-08-04T10:57:13.687Z,98186.47
2022-08-04T10:59:53.839Z,98186.31
2022-08-04T11:02:27.530Z,98184.38
2022-08-04T11:05:20.458Z,98175.16
2022-08-04T11:07:50.909Z,98176.88
2022-08-04T11:10:26.564Z,98177.47
2022-08-04T11:12:58.501Z,98173.75
2022-08-04T11:15:40.069Z,98179.84
2022-08-04T11:18:16.944Z,98186.06
2022-08-04T11:20:55.560Z,98175.38
2022-08-04T11:23:28.135Z,98170.94
2022-08-04T11:26:06.165Z,98173.41
2022-08-04T11:28:36.384Z,98178.53
2022-08-04T11:31:20.725Z,98175.44
2022-08-04T11:34:01.129Z,98154.75
2022-08-04T11:36:37.185Z,98169.63
2022-08-04T11:39:10.126Z,98150.78
2022-08-04T11:42:15.183Z,98164.87
2022-08-04T11:44:43.873Z,98161.75
2022-08-04T11:47:33.123Z,98166.88
2022-08-04T11:50:13.578Z,98161.50
2022-08-04T11:52:43.464Z,98157.47
2022-08-04T11:55:12.429Z,98154.66
2022-08-04T11:57:39.923Z,98156.94
2022-08-04T12:00:12.853Z,98162.88
2022-08-04T12:02:58.105Z,98154.22
2022-08-04T12:05:36.570Z,98149.75
2022-08-04T12:08:22.797Z,98139.47
2022-08-04T12:11:11.569Z,98141.56
2022-08-04T12:14:06.376Z,98136.16
2022-08-04T12:16:43.306Z,98131.28
2022-08-04T12:19:53.884Z,98140.34
2022-08-04T12:22:23.423Z,98127.09
2022-08-04T12:25:10.400Z,98131.06
2022-08-04T12:27:53.957Z,98128.66
2022-08-04T12:31:00.378Z,98134.16
2022-08-04T12:34:02.820Z,98130.22
2022-08-04T12:36:21.963Z,98135.50
2022-08-04T12:38:53.089Z,98128.03
2022-08-04T12:41:25.151Z,98123.41
2022-08-04T12:43:52.272Z,98126.87
2022-08-04T12:46:27.397Z,98126.13
2022-08-04T12:49:08.208Z,98123.66
2022-08-04T12:52:07.669Z,98127.19
2022-08-04T12:54:29.314Z,98123.88
2022-08-04T12:56:58.859Z,98119.03
2022-08-04T12:59:26.048Z,98120.31
2022-08-04T13:02:09.176Z,98113.25
2022-08-04T13:04:42.744Z,98108.25
2022-08-04T13:07:24.167Z,98108.06
2022-08-04T13:09:52.170Z,98107.34
2022-08-04T13:12:32.044Z,98097.13
2022-08-04T13:15:09.966Z,98087.81
2022-08-04T13:18:15.008Z,98090.53
2022-08-04T13:20:44.090Z,98096.56
2022-08-04T13:23:21.763Z,98088.59
2022-08-04T13:26:45.146Z,98075.78
2022-08-04T13:28:42.944Z,98085.31
2022-08-04T13:31:16.761Z,98085.56
2022-08-04T13:33:47.273Z,98086.56
2022-08-04T13:36:14.965Z,98079.19
2022-08-04T13:38:51.292Z,98071.75
2022-08-04T13:41:19.492Z,98068.97
2022-08-04T13:44:17.868Z,98074.56
2022-08-04T13:46:50.476Z,98074.94
2022-08-04T13:49:42.907Z,98063.19
2022-08-04T13:52:09.986Z,98060.41
2022-08-04T13:54:44.159Z,98063.38
2022-08-04T13:57:19.943Z,98064.78
2022-08-04T13:59:52.733Z,98047.94
2022-08-04T14:03:03.163Z,98049.41
2022-08-04T14:05:35.408Z,98057.75
2022-08-04T14:08:24.485Z,98051.88
2022-08-04T14:10:55.736Z,98059.03
2022-08-04T14:13:41.592Z,98054.44
2022-08-04T14:16:21.203Z,98055.38
2022-08-04T14:18:48.882Z,98049.50
2022-08-04T14:21:17.741Z,98057.56
2022-08-04T14:23:55.744Z,98053.81
2022-08-04T14:26:32.444Z,98052.13
2022-08-04T14:29:26.923Z,98055.38
2022-08-04T14:32:04.399Z,98053.72
2022-08-04T14:34:41.538Z,98044.63
2022-08-04T14:37:17.698Z,98048.09
2022-08-04T14:40:18.236Z,98050.53
2022-08-04T14:42:55.801Z,98043.38
2022-08-04T14:45:30.703Z,98056.31
2022-08-04T14:47:58.164Z,98049.31
2022-08-04T14:50:37.997Z,98046.88
2022-08-04T14:53:08.431Z,98042.34
2022-08-04T14:55:37.150Z,98042.50
2022-08-04T14:58:35.529Z,98032.63
2022-08-04T15:00:53.872Z,98039.22
2022-08-04T15:03:22.090Z,98037.03
2022-08-04T15:06:00.967Z,98045.59
2022-08-04T15:08:32.015Z,98044.16
2022-08-04T15:11:03.548Z,98029.50
2022-08-04T15:13:32.500Z,98035.09
2022-08-04T15:16:06.667Z,98031.97
2022-08-04T15:18:38.968Z,98038.06
2022-08-04T15:21:07.370Z,98038.69
2022-08-04T15:23:38.795Z,98033.16
2022-08-04T15:26:11.793Z,98030.94
2022-08-04T15:28:40.697Z,98023.31
2022-08-04T15:31:10.640Z,98031.53
2022-08-04T15:33:56.627Z,98035.97
2022-08-04T15:36:36.134Z,98035.16
2022-08-04T15:39:16.733Z,98029.63
2022-08-04T15:41:55.069Z,98028.16
2022-08-04T15:44:47.515Z,98025.94
2022-08-04T15:47:15.850Z,98026.03
2022-08-04T15:49:46.521Z,98030.91
2022-08-04T15:52:16.813Z,98024.12
2022-08-04T15:54:52.096Z,98016.06
2022-08-04T15:57:59.654Z,98019.13
2022-08-04T16:00:26.874Z,98026.13
2022-08-04T16:02:53.960Z,98016.03
2022-08-04T16:05:20.811Z,98015.22
2022-08-04T16:08:10.159Z,98021.50
2022-08-04T16:10:38.986Z,98021.25
2022-08-04T16:13:08.423Z,98014.94
2022-08-04T16:15:55.567Z,98013.25
2022-08-04T16:18:38.565Z,98004.63
2022-08-04T16:21:08.250Z,98010.19
2022-08-04T16:23:56.069Z,98013.09
2022-08-04T16:26:36.989Z,98007.25
2022-08-04T16:29:27.409Z,98007.25
2022-08-04T16:32:07.233Z,98005.06
2022-08-04T16:34:54.630Z,98004.91
2022-08-04T16:37:25.509Z,98005.78
2022-08-04T16:40:38.475Z,98002.16
2022-08-04T16:43:10.259Z,98004.50
2022-08-04T16:46:01.693Z,97997.37
2022-08-04T16:48:30.740Z,98010.22
2022-08-04T16:51:03.288Z,98000.75
2022-08-04T16:54:03.028Z,97995.53
2022-08-04T16:56:33.024Z,97998.34
2022-08-04T16:59:07.336Z,97994.25
2022-08-04T17:01:34.804Z,97997.31
2022-08-04T17:04:06.678Z,97995.31
2022-08-04T17:06:37.997Z,97991.72
2022-08-04T17:09:06.706Z,97998.78
2022-08-04T17:11:34.012Z,97994.03
2022-08-04T17:14:05.415Z,97999.44
2022-08-04T17:16:35.487Z,98008.72
2022-08-04T17:19:02.866Z,98007.06
2022-08-04T17:21:32.521Z,98009.78
2022-08-04T17:24:14.884Z,98007.81
2022-08-04T17:26:54.247Z,98008.88
2022-08-04T17:29:44.004Z,98002.34
2022-08-04T17:32:21.904Z,97998.47
2022-08-04T17:34:57.689Z,98004.81
2022-08-04T17:37:52.854Z,98008.22
2022-08-04T17:40:17.890Z,98002.91
2022-08-04T17:42:45.702Z,98004.56
2022-08-04T17:48:24.880Z,98001.53
2022-08-04T17:50:52.130Z,98006.19
2022-08-04T17:53:52.828Z,98005.13
2022-08-04T17:56:33.917Z,98011.13
2022-08-04T17:59:13.169Z,98000.00
2022-08-04T18:02:01.473Z,98001.56
2022-08-04T18:08:39.534Z,98001.94
2022-08-04T18:10:44.772Z,97994.56
2022-08-04T18:13:26.829Z,97997.69
2022-08-04T18:16:04.502Z,98003.63
2022-08-04T18:18:31.910Z,98005.78
2022-08-04T18:21:03.487Z,98007.31
2022-08-04T18:23:33.061Z,98008.81
2022-08-04T18:28:48.096Z,98008.59
2022-08-04T18:31:16.595Z,98014.88
2022-08-04T18:33:43.708Z,98017.94
2022-08-04T18:36:34.732Z,98013.53
2022-08-04T18:39:12.575Z,98011.06
2022-08-04T18:42:02.025Z,98015.03
2022-08-04T18:44:29.473Z,98022.81
2022-08-04T18:47:19.751Z,98023.28
2022-08-04T18:51:01.063Z,98023.00
2022-08-04T18:52:32.436Z,98021.28
2022-08-04T18:55:01.853Z,98029.50
2022-08-04T18:57:58.529Z,98032.31
2022-08-04T19:00:20.192Z,98032.16
2022-08-04T19:02:47.711Z,98033.59
2022-08-04T19:05:17.387Z,98028.69
2022-08-04T19:08:02.048Z,98026.72
2022-08-04T19:10:31.843Z,98027.06
2022-08-04T19:12:58.855Z,98039.22
2022-08-04T19:15:33.886Z,98040.13
2022-08-04T19:18:02.261Z,98037.28
2022-08-04T19:20:30.799Z,98029.97
2022-08-04T19:24:30.463Z,98032.03
2022-08-04T19:26:01.912Z,98028.22
2022-08-04T19:28:34.788Z,98032.06
2022-08-04T19:31:04.865Z,98031.00
2022-08-04T19:33:58.836Z,98030.81
2022-08-04T19:36:19.297Z,98036.81
2022-08-04T19:38:46.281Z,98040.09
2022-08-04T19:41:15.490Z,98039.84
2022-08-04T19:43:47.304Z,98041.31
2022-08-04T19:46:15.606Z,98039.53
2022-08-04T19:48:44.985Z,98036.84
2022-08-04T19:51:27.825Z,98034.75
2022-08-04T19:54:02.299Z,98038.62
2022-08-04T19:56:29.590Z,98042.72
2022-08-04T19:59:08.644Z,98039.94
2022-08-04T20:01:44.529Z,98038.19
2022-08-04T20:04:13.184Z,98039.09
2022-08-04T20:06:40.342Z,98045.00
2022-08-04T20:09:25.921Z,98041.97
2022-08-04T20:11:55.453Z,98043.53
2022-08-04T20:14:31.436Z,98042.91
2022-08-04T20:17:01.293Z,98039.81
2022-08-04T20:19:28.217Z,98046.62
2022-08-04T20:21:57.840Z,98041.34
2022-08-04T20:24:40.530Z,98043.06
2022-08-04T20:27:15.153Z,98042.25
2022-08-04T20:29:52.262Z,98043.34
2022-08-04T20:32:26.275Z,98049.47
2022-08-04T20:34:55.261Z,98048.00
2022-08-04T20:37:24.496Z,98046.56
2022-08-04T20:39:58.493Z,98057.56
2022-08-04T20:42:33.843Z,98047.31
2022-08-04T20:45:01.597Z,98053.19
2022-08-04T20:47:35.240Z,98050.09
2022-08-04T20:50:09.175Z,98044.38
2022-08-04T20:52:37.733Z,98044.72
2022-08-04T20:55:05.829Z,98038.88
2022-08-04T20:57:47.658Z,98046.12
2022-08-04T21:00:17.786Z,98052.44
2022-08-04T21:02:57.498Z,98049.47
2022-08-04T21:05:24.422Z,98054.53
2022-08-04T21:07:56.884Z,98049.16
2022-08-04T21:10:27.072Z,98049.63
2022-08-04T21:12:54.768Z,98055.22
2022-08-04T21:15:25.645Z,98058.19
2022-08-04T21:17:58.870Z,98054.19
2022-08-04T21:20:32.148Z,98045.53
2022-08-04T21:23:02.214Z,98058.91
2022-08-04T21:25:30.617Z,98055.03
2022-08-04T21:27:58.969Z,98059.16
2022-08-04T21:30:31.085Z,98052.53
2022-08-04T21:33:04.746Z,98052.41
2022-08-04T21:35:38.289Z,98054.78
2022-08-04T21:38:17.306Z,98054.31
2022-08-04T21:41:01.599Z,98058.63
2022-08-04T21:43:34.370Z,98061.31
2022-08-04T21:46:10.374Z,98064.97
2022-08-04T21:48:38.767Z,98075.06
2022-08-04T21:51:58.900Z,98064.97
2022-08-04T21:54:04.061Z,98067.47
2022-08-04T21:56:32.696Z,98074.34
2022-08-04T21:59:00.238Z,98073.94
2022-08-04T22:01:50.235Z,98076.78
2022-08-04T22:04:14.671Z,98064.66
2022-08-04T22:06:42.240Z,98069.38
2022-08-04T22:09:15.050Z,98067.00
2022-08-04T22:11:48.876Z,98062.31
2022-08-04T22:14:17.532Z,98068.53
2022-08-04T22:16:56.641Z,98060.28
2022-08-04T22:19:39.713Z,98073.56
2022-08-04T22:22:12.599Z,98076.22
2022-08-04T22:24:41.241Z,98075.59
2022-08-04T22:27:11.902Z,98073.37
2022-08-04T22:29:42.944Z,98070.22
2022-08-04T22:32:11.931Z,98073.22
2022-08-04T22:34:45.735Z,98068.19
2022-08-04T22:37:20.837Z,98071.19
2022-08-04T22:40:04.885Z,98073.47
2022-08-04T22:42:32.019Z,98066.50
2022-08-04T22:44:59.305Z,98073.09
2022-08-04T22:47:27.621Z,98067.00
2022-08-04T22:50:21.672Z,98065.31
2022-08-04T22:52:55.647Z,98065.41
2022-08-04T22:55:23.316Z,98064.44
2022-08-04T22:58:04.582Z,98067.56
2022-08-04T23:00:32.869Z,98069.34
2022-08-04T23:03:00.017Z,98066.25
2022-08-04T23:05:29.168Z,98053.03
2022-08-04T23:08:05.087Z,98065.13
2022-08-04T23:10:32.995Z,98055.91
2022-08-04T23:13:04.261Z,98057.63
2022-08-04T23:15:33.703Z,98050.19
2022-08-04T23:18:01.286Z,98055.25
2022-08-04T23:20:32.539Z,98050.16
2022-08-04T23:23:14.642Z,98046.09
2022-08-04T23:26:07.542Z,98043.66
2022-08-04T23:28:31.740Z,98045.91
2022-08-04T23:30:58.779Z,98046.31
2022-08-04T23:33:49.407Z,98047.53
2022-08-04T23:36:12.722Z,98040.63
2022-08-04T23:38:40.615Z,98043.22
2022-08-04T23:41:13.681Z,98027.97
2022-08-04T23:43:55.117Z,98039.25
2022-08-04T23:46:22.696Z,98032.91
2022-08-04T23:48:49.788Z,98037.34
2022-08-04T23:51:16.918Z,98036.06
2022-08-04T23:54:01.595Z,98037.25
2022-08-04T23:56:30.112Z,98037.13
2022-08-04T23:59:00.074Z,98030.66
